createdAt,value
2024-02-09T00:01:42.696Z,1.00
2024-02-09T00:04:13.684Z,71.80
2024-02-09T00:06:41.181Z,36.90
2024-02-09T00:09:13.510Z,1.00
2024-02-09T00:11:41.135Z,1.00
2024-02-09T00:14:08.575Z,99.90
2024-02-09T00:16:36.223Z,69.50
2024-02-09T00:19:05.438Z,1.00
2024-02-09T00:21:36.748Z,1.00
2024-02-09T00:24:04.431Z,1.00
2024-02-09T00:26:31.728Z,1.00
2024-02-09T00:29:02.158Z,86.80
2024-02-09T00:31:29.477Z,99.90
2024-02-09T00:33:57.138Z,99.90
2024-02-09T00:36:24.494Z,99.90
2024-02-09T00:38:51.740Z,99.90
2024-02-09T00:41:19.161Z,99.90
2024-02-09T00:43:47.969Z,99.90
2024-02-09T00:46:16.320Z,99.90
2024-02-09T00:48:43.707Z,1.00
2024-02-09T00:51:11.037Z,99.90
2024-02-09T00:53:38.740Z,99.90
2024-02-09T00:56:08.058Z,99.90
2024-02-09T00:58:35.521Z,99.90
2024-02-09T01:01:04.588Z,99.90
2024-02-09T01:03:32.001Z,93.90
2024-02-09T01:06:01.320Z,99.90
2024-02-09T01:08:30.337Z,99.90
2024-02-09T01:10:58.048Z,99.90
2024-02-09T01:13:43.952Z,1.00
2024-02-09T01:16:30.058Z,92.60
2024-02-09T01:19:16.561Z,35.20
2024-02-09T01:22:02.789Z,76.10
2024-02-09T01:24:48.887Z,99.90
2024-02-09T01:27:34.654Z,99.90
2024-02-09T01:30:20.599Z,99.90
2024-02-09T01:33:06.531Z,99.90
2024-02-09T01:35:52.226Z,99.90
2024-02-09T01:38:37.974Z,99.90
2024-02-09T01:41:23.833Z,99.90
2024-02-09T01:44:09.964Z,99.90
2024-02-09T01:46:57.573Z,1.00
2024-02-09T01:49:43.505Z,1.00
2024-02-09T01:52:29.511Z,99.90
2024-02-09T01:55:15.945Z,99.90
2024-02-09T01:58:01.747Z,1.00
2024-02-09T02:00:48.235Z,1.00
2024-02-09T02:03:38.154Z,1.00
2024-02-09T02:06:25.182Z,1.00
2024-02-09T02:09:10.925Z,1.00
2024-02-09T02:11:56.811Z,1.00
2024-02-09T02:14:42.532Z,1.00
2024-02-09T02:17:28.492Z,1.00
2024-02-09T02:20:14.576Z,1.00
2024-02-09T02:23:23.227Z,1.00
2024-02-09T02:26:09.396Z,1.00
2024-02-09T02:28:55.270Z,1.00
2024-02-09T02:31:41.259Z,1.00
2024-02-09T02:34:27.270Z,1.00
2024-02-09T02:37:14.689Z,1.00
2024-02-09T02:40:00.927Z,1.00
2024-02-09T02:42:28.194Z,1.00
2024-02-09T02:44:58.350Z,1.00
2024-02-09T02:47:25.801Z,1.00
2024-02-09T02:50:12.245Z,1.00
2024-02-09T02:52:57.982Z,1.00
2024-02-09T02:55:43.927Z,1.00
2024-02-09T02:58:29.866Z,1.00
2024-02-09T03:01:15.921Z,1.00
2024-02-09T03:04:02.089Z,1.00
2024-02-09T03:06:34.114Z,1.00
2024-02-09T03:09:09.655Z,1.00
2024-02-09T03:11:37.023Z,1.00
2024-02-09T03:14:06.692Z,1.00
2024-02-09T03:16:34.150Z,1.00
2024-02-09T03:19:01.552Z,1.00
2024-02-09T03:21:36.327Z,1.00
2024-02-09T03:24:03.804Z,1.00
2024-02-09T03:26:31.287Z,1.00
2024-02-09T03:28:59.780Z,1.00
2024-02-09T03:31:30.282Z,1.00
2024-02-09T03:33:58.169Z,1.00
2024-02-09T03:36:25.684Z,1.00
2024-02-09T03:38:54.795Z,1.00
2024-02-09T03:41:26.893Z,1.00
2024-02-09T03:43:54.310Z,1.00
2024-02-09T03:46:21.852Z,1.00
2024-02-09T03:48:49.279Z,1.00
2024-02-09T03:51:16.637Z,1.00
2024-02-09T03:53:44.541Z,1.00
2024-02-09T03:56:11.885Z,1.00
2024-02-09T03:58:39.277Z,1.00
2024-02-09T04:01:11.895Z,1.00
2024-02-09T04:03:39.697Z,1.00
2024-02-09T04:06:07.777Z,1.00
2024-02-09T04:08:35.111Z,1.00
2024-02-09T04:11:02.564Z,1.00
2024-02-09T04:13:30.090Z,1.00
2024-02-09T04:16:01.885Z,1.00
2024-02-09T04:18:30.663Z,1.00
2024-02-09T04:20:58.662Z,1.00
2024-02-09T04:23:25.950Z,1.00
2024-02-09T04:25:53.281Z,1.00
2024-02-09T04:28:20.719Z,1.00
2024-02-09T04:30:48.657Z,1.00
2024-02-09T04:33:17.451Z,1.00
2024-02-09T04:35:45.193Z,1.00
2024-02-09T04:38:13.994Z,1.00
2024-02-09T04:40:41.509Z,1.00
2024-02-09T04:43:08.985Z,1.00
2024-02-09T04:45:36.329Z,1.00
2024-02-09T04:48:04.177Z,1.00
2024-02-09T04:50:31.658Z,1.00
2024-02-09T04:52:58.992Z,1.00
2024-02-09T04:55:26.492Z,1.00
2024-02-09T04:57:53.803Z,1.00
2024-02-09T05:00:21.384Z,1.00
2024-02-09T05:02:48.839Z,1.00
2024-02-09T05:05:16.385Z,1.00
2024-02-09T05:07:43.899Z,1.00
2024-02-09T05:10:12.887Z,1.00
2024-02-09T05:12:40.385Z,1.00
2024-02-09T05:15:08.014Z,1.00
2024-02-09T05:17:39.488Z,1.00
2024-02-09T05:20:07.714Z,1.00
2024-02-09T05:22:35.079Z,1.00
2024-02-09T05:25:04.138Z,1.00
2024-02-09T05:27:34.034Z,1.00
2024-02-09T05:30:01.566Z,1.00
2024-02-09T05:32:28.849Z,1.00
2024-02-09T05:34:58.096Z,1.00
2024-02-09T05:37:25.663Z,1.00
2024-02-09T05:39:53.484Z,1.00
2024-02-09T05:42:20.832Z,1.00
2024-02-09T05:44:48.219Z,1.00
2024-02-09T05:47:16.039Z,1.00
2024-02-09T05:49:43.872Z,1.00
2024-02-09T05:52:12.322Z,1.00
2024-02-09T05:54:39.728Z,1.00
2024-02-09T05:57:07.683Z,1.00
2024-02-09T05:59:35.023Z,1.00
2024-02-09T06:02:02.365Z,1.00
2024-02-09T06:04:31.990Z,1.00
2024-02-09T06:07:00.996Z,1.00
2024-02-09T06:09:30.476Z,1.00
2024-02-09T06:11:59.827Z,1.00
2024-02-09T06:14:27.122Z,1.00
2024-02-09T06:16:56.541Z,1.00
2024-02-09T06:19:24.836Z,1.00
2024-02-09T06:21:52.469Z,1.00
2024-02-09T06:24:20.069Z,1.00
2024-02-09T06:26:48.014Z,1.00
2024-02-09T06:29:16.032Z,1.00
2024-02-09T06:31:44.329Z,1.00
2024-02-09T06:34:12.059Z,1.00
2024-02-09T06:36:40.594Z,1.00
2024-02-09T06:39:10.115Z,1.00
2024-02-09T06:41:37.658Z,1.00
2024-02-09T06:44:05.118Z,1.00
2024-02-09T06:46:32.538Z,99.90
2024-02-09T06:49:00.869Z,99.90
2024-02-09T06:51:28.393Z,99.90
2024-02-09T06:53:58.275Z,99.90
2024-02-09T06:56:25.682Z,99.90
2024-02-09T06:58:55.969Z,99.90
2024-02-09T07:01:23.607Z,99.90
2024-02-09T07:03:54.622Z,99.90
2024-02-09T07:06:25.927Z,99.90
2024-02-09T07:08:54.581Z,99.90
2024-02-09T07:11:22.349Z,99.90
2024-02-09T07:13:49.954Z,99.90
2024-02-09T07:16:18.970Z,99.90
2024-02-09T07:18:46.268Z,1.00
2024-02-09T07:21:16.905Z,1.00
2024-02-09T07:23:51.210Z,1.00
2024-02-09T07:26:19.358Z,1.00
2024-02-09T07:28:46.774Z,1.00
2024-02-09T07:31:17.704Z,1.00
2024-02-09T07:33:45.578Z,1.00
2024-02-09T07:36:13.950Z,1.00
2024-02-09T07:38:41.561Z,1.00
2024-02-09T07:41:12.570Z,1.00
2024-02-09T07:43:40.774Z,1.00
2024-02-09T07:46:08.420Z,1.00
2024-02-09T07:48:37.076Z,1.00
2024-02-09T07:51:05.697Z,1.00
2024-02-09T07:53:33.203Z,1.00
2024-02-09T07:56:01.945Z,99.90
2024-02-09T07:58:30.149Z,99.90
2024-02-09T08:00:58.573Z,99.90
2024-02-09T08:03:26.385Z,99.90
2024-02-09T08:05:55.189Z,99.90
2024-02-09T08:08:23.038Z,99.90
2024-02-09T08:10:51.087Z,99.90
2024-02-09T08:13:18.890Z,99.90
2024-02-09T08:15:47.362Z,19.10
2024-02-09T08:18:15.158Z,99.90
2024-02-09T08:20:43.256Z,1.00
2024-02-09T08:23:10.748Z,99.90
2024-02-09T08:25:38.347Z,99.90
2024-02-09T08:28:06.079Z,99.90
2024-02-09T08:30:33.615Z,1.00
2024-02-09T08:33:01.796Z,99.90
2024-02-09T08:35:29.415Z,99.90
2024-02-09T08:37:56.978Z,4.00
2024-02-09T08:40:27.062Z,99.90
2024-02-09T08:42:55.034Z,1.00
2024-02-09T08:45:22.452Z,1.00
2024-02-09T08:47:49.806Z,1.00
2024-02-09T08:50:17.452Z,1.00
2024-02-09T08:52:45.245Z,99.90
2024-02-09T08:55:12.739Z,99.90
2024-02-09T08:57:40.452Z,1.00
2024-02-09T09:00:08.663Z,99.90
2024-02-09T09:02:36.250Z,1.00
2024-02-09T09:05:08.261Z,1.00
2024-02-09T09:07:36.327Z,1.00
2024-02-09T09:10:07.420Z,99.90
2024-02-09T09:12:37.817Z,99.90
2024-02-09T09:15:06.269Z,99.90
2024-02-09T09:17:34.430Z,99.90
2024-02-09T09:20:02.102Z,99.90
2024-02-09T09:22:29.711Z,99.90
2024-02-09T09:24:57.188Z,1.00
2024-02-09T09:27:25.241Z,1.00
2024-02-09T09:29:54.173Z,99.90
2024-02-09T09:32:23.571Z,99.90
2024-02-09T09:34:51.448Z,99.90
2024-02-09T09:37:19.666Z,1.00
2024-02-09T09:39:47.774Z,1.00
2024-02-09T09:42:17.977Z,1.00
2024-02-09T09:44:47.031Z,1.00
2024-02-09T09:47:15.091Z,99.90
2024-02-09T09:49:46.057Z,99.90
2024-02-09T09:52:22.106Z,99.90
2024-02-09T09:54:50.187Z,99.90
2024-02-09T09:57:17.656Z,99.90
2024-02-09T09:59:45.539Z,82.00
2024-02-09T10:02:13.210Z,99.90
2024-02-09T10:04:40.706Z,99.90
2024-02-09T10:07:09.530Z,99.90
2024-02-09T10:09:37.379Z,99.90
2024-02-09T10:12:07.596Z,99.90
2024-02-09T10:14:40.415Z,99.90
2024-02-09T10:17:08.097Z,99.90
2024-02-09T10:19:35.767Z,99.90
2024-02-09T10:22:10.490Z,99.90
2024-02-09T10:24:46.161Z,82.90
2024-02-09T10:27:13.609Z,9.90
2024-02-09T10:29:41.401Z,1.00
2024-02-09T10:32:08.805Z,1.00
2024-02-09T10:34:39.101Z,1.00
2024-02-09T10:37:13.693Z,1.00
2024-02-09T10:39:44.981Z,1.00
2024-02-09T10:42:16.265Z,1.00
2024-02-09T10:44:47.793Z,1.00
2024-02-09T10:47:16.776Z,1.00
2024-02-09T10:49:48.110Z,1.00
2024-02-09T10:52:18.817Z,1.00
2024-02-09T10:54:50.538Z,1.00
2024-02-09T10:57:19.557Z,1.00
2024-02-09T10:59:47.909Z,1.00
2024-02-09T11:02:16.697Z,1.00
2024-02-09T11:04:46.030Z,1.00
2024-02-09T11:07:16.612Z,1.00
2024-02-09T11:09:47.229Z,1.00
2024-02-09T11:12:14.946Z,1.00
2024-02-09T11:14:46.102Z,1.00
2024-02-09T11:17:19.892Z,1.00
2024-02-09T11:19:47.486Z,99.90
2024-02-09T11:22:15.079Z,99.90
2024-02-09T11:24:53.699Z,99.90
2024-02-09T11:27:31.817Z,99.90
2024-02-09T11:29:59.165Z,99.90
2024-02-09T11:32:26.711Z,99.90
2024-02-09T11:34:56.838Z,99.90
2024-02-09T11:37:25.137Z,99.90
2024-02-09T11:39:53.697Z,99.90
2024-02-09T11:42:33.841Z,99.90
2024-02-09T11:45:03.202Z,99.90
2024-02-09T11:47:32.810Z,99.90
2024-02-09T11:50:00.815Z,99.90
2024-02-09T11:52:29.148Z,99.90
2024-02-09T11:54:56.529Z,99.90
2024-02-09T11:57:25.222Z,99.90
2024-02-09T11:59:53.522Z,99.90
2024-02-09T12:02:21.196Z,99.90
2024-02-09T12:04:48.870Z,99.90
2024-02-09T12:07:16.498Z,99.90
2024-02-09T12:09:43.970Z,99.90
2024-02-09T12:12:11.293Z,99.90
2024-02-09T12:14:39.505Z,99.90
2024-02-09T12:17:12.486Z,99.90
2024-02-09T12:19:41.013Z,99.90
2024-02-09T12:22:08.416Z,99.90
2024-02-09T12:24:36.366Z,99.90
2024-02-09T12:27:17.051Z,99.90
2024-02-09T12:29:45.305Z,99.90
2024-02-09T12:32:14.289Z,99.90
2024-02-09T12:34:48.867Z,99.90
2024-02-09T12:37:18.663Z,99.90
2024-02-09T12:39:50.696Z,99.90
2024-02-09T12:42:19.256Z,99.90
2024-02-09T12:44:46.697Z,99.90
2024-02-09T12:47:14.076Z,99.90
2024-02-09T12:49:41.553Z,99.90
2024-02-09T12:52:09.991Z,99.90
2024-02-09T12:54:38.810Z,99.90
2024-02-09T12:57:08.203Z,99.90
2024-02-09T12:59:36.679Z,99.90
2024-02-09T13:02:08.952Z,99.90
2024-02-09T13:04:36.571Z,99.90
2024-02-09T13:07:07.375Z,99.90
2024-02-09T13:09:35.094Z,99.90
2024-02-09T13:12:03.919Z,99.90
2024-02-09T13:14:31.301Z,99.90
2024-02-09T13:16:59.069Z,99.90
2024-02-09T13:19:26.950Z,99.90
2024-02-09T13:21:56.882Z,99.90
2024-02-09T13:24:24.397Z,99.90
2024-02-09T13:26:52.035Z,99.90
2024-02-09T13:29:25.544Z,99.90
2024-02-09T13:31:55.061Z,99.90
2024-02-09T13:34:23.224Z,99.90
2024-02-09T13:36:50.882Z,99.90
2024-02-09T13:39:18.888Z,99.90
2024-02-09T13:41:47.222Z,99.90
2024-02-09T13:44:17.376Z,99.90
2024-02-09T13:46:45.348Z,99.90
2024-02-09T13:49:13.018Z,99.90
2024-02-09T13:51:40.781Z,99.90
2024-02-09T13:54:08.536Z,99.90
2024-02-09T13:56:38.680Z,96.00
2024-02-09T13:59:07.099Z,95.30
2024-02-09T14:01:37.626Z,96.30
2024-02-09T14:04:08.389Z,82.80
2024-02-09T14:06:39.273Z,74.60
2024-02-09T14:09:07.460Z,86.00
2024-02-09T14:11:35.329Z,92.20
2024-02-09T14:14:04.332Z,84.60
2024-02-09T14:16:36.645Z,81.10
2024-02-09T14:19:05.831Z,77.80
2024-02-09T14:21:34.034Z,83.20
2024-02-09T14:24:02.046Z,74.60
2024-02-09T14:26:30.080Z,70.30
2024-02-09T14:29:00.248Z,62.80
2024-02-09T14:31:29.118Z,86.70
2024-02-09T14:33:56.694Z,85.80
2024-02-09T14:36:24.207Z,75.00
2024-02-09T14:38:51.644Z,64.00
2024-02-09T14:41:20.103Z,67.00
2024-02-09T14:43:49.538Z,77.00
2024-02-09T14:46:17.230Z,65.40
2024-02-09T14:48:44.697Z,68.30
2024-02-09T14:51:12.090Z,80.10
2024-02-09T14:53:41.226Z,82.40
2024-02-09T14:56:09.572Z,96.10
2024-02-09T14:58:37.240Z,99.90
2024-02-09T15:01:05.017Z,99.90
2024-02-09T15:03:38.515Z,99.90
2024-02-09T15:06:15.659Z,99.90
2024-02-09T15:08:49.772Z,99.90
2024-02-09T15:11:24.383Z,99.90
2024-02-09T15:13:53.474Z,99.90
2024-02-09T15:16:21.010Z,99.90
2024-02-09T15:18:48.856Z,99.90
2024-02-09T15:21:18.382Z,99.90
2024-02-09T15:23:46.584Z,99.90
2024-02-09T15:26:16.134Z,1.00
2024-02-09T15:28:45.406Z,1.00
2024-02-09T15:31:13.205Z,1.00
2024-02-09T15:33:40.726Z,1.00
2024-02-09T15:36:08.757Z,1.00
2024-02-09T15:38:37.433Z,99.90
2024-02-09T15:41:05.028Z,99.90
2024-02-09T15:43:32.536Z,99.90
2024-02-09T15:46:01.074Z,52.60
2024-02-09T15:48:28.517Z,99.90
2024-02-09T15:50:55.886Z,99.90
2024-02-09T15:53:23.887Z,99.90
2024-02-09T15:55:53.981Z,99.90
2024-02-09T15:58:21.698Z,1.00
2024-02-09T16:00:49.265Z,1.00
2024-02-09T16:03:20.078Z,1.00
2024-02-09T16:05:47.691Z,1.00
2024-02-09T16:08:15.130Z,1.00
2024-02-09T16:10:45.980Z,1.00
2024-02-09T16:13:14.635Z,13.50
2024-02-09T16:15:45.456Z,99.90
2024-02-09T16:18:12.981Z,99.90
2024-02-09T16:20:40.514Z,99.90
2024-02-09T16:23:08.093Z,99.90
2024-02-09T16:25:35.786Z,1.00
2024-02-09T16:28:04.147Z,1.00
2024-02-09T16:30:31.696Z,99.90
2024-02-09T16:32:59.227Z,99.90
2024-02-09T16:35:26.750Z,99.90
2024-02-09T16:37:54.549Z,99.90
2024-02-09T16:40:23.215Z,1.00
2024-02-09T16:42:50.906Z,99.90
2024-02-09T16:45:18.640Z,7.00
2024-02-09T16:47:46.510Z,1.00
2024-02-09T16:50:14.128Z,1.00
2024-02-09T16:52:41.840Z,1.00
2024-02-09T16:55:09.489Z,99.90
2024-02-09T16:57:40.035Z,99.90
2024-02-09T17:00:10.227Z,99.90
2024-02-09T17:02:40.239Z,99.90
2024-02-09T17:05:08.346Z,99.90
2024-02-09T17:07:36.100Z,99.90
2024-02-09T17:10:05.892Z,99.90
2024-02-09T17:12:33.884Z,99.90
2024-02-09T17:15:01.310Z,99.90
2024-02-09T17:17:28.744Z,99.90
2024-02-09T17:19:56.629Z,99.90
2024-02-09T17:22:24.185Z,99.90
2024-02-09T17:24:51.636Z,99.90
2024-02-09T17:27:19.185Z,1.00
2024-02-09T17:29:46.551Z,1.00
2024-02-09T17:32:14.185Z,99.90
2024-02-09T17:34:41.644Z,1.00
2024-02-09T17:37:10.349Z,1.00
2024-02-09T17:39:38.436Z,1.00
2024-02-09T17:42:06.272Z,1.00
2024-02-09T17:44:33.726Z,99.90
2024-02-09T17:47:04.394Z,99.90
2024-02-09T17:49:34.209Z,99.90
2024-02-09T17:52:02.372Z,1.00
2024-02-09T17:54:29.870Z,1.00
2024-02-09T17:56:57.321Z,1.00
2024-02-09T17:59:25.131Z,1.00
2024-02-09T18:01:52.743Z,1.00
2024-02-09T18:04:20.397Z,1.00
2024-02-09T18:06:47.908Z,1.00
2024-02-09T18:09:15.933Z,1.00
2024-02-09T18:11:43.502Z,1.00
2024-02-09T18:14:11.015Z,1.00
2024-02-09T18:16:38.476Z,1.00
2024-02-09T18:19:09.384Z,1.00
2024-02-09T18:21:39.137Z,1.00
2024-02-09T18:24:06.787Z,1.00
2024-02-09T18:26:34.108Z,1.00
2024-02-09T18:29:01.534Z,1.00
2024-02-09T18:31:29.613Z,1.00
2024-02-09T18:33:57.394Z,1.00
2024-02-09T18:36:25.637Z,1.00
2024-02-09T18:38:55.720Z,1.00
2024-02-09T18:41:23.757Z,1.00
2024-02-09T18:43:51.339Z,1.00
2024-02-09T18:46:19.141Z,1.00
2024-02-09T18:48:46.638Z,1.00
2024-02-09T18:51:14.719Z,1.00
2024-02-09T18:53:42.314Z,1.00
2024-02-09T18:56:09.713Z,1.00
2024-02-09T18:58:37.435Z,1.00
2024-02-09T19:01:06.871Z,1.00
2024-02-09T19:03:34.826Z,1.00
2024-02-09T19:06:03.021Z,1.00
2024-02-09T19:08:32.622Z,1.00
2024-02-09T19:11:01.284Z,1.00
2024-02-09T19:13:29.040Z,1.00
2024-02-09T19:15:56.435Z,1.00
2024-02-09T19:18:24.037Z,1.00
2024-02-09T19:20:51.595Z,1.00
2024-02-09T19:23:19.060Z,1.00
2024-02-09T19:25:48.159Z,1.00
2024-02-09T19:28:16.326Z,1.00
2024-02-09T19:30:45.094Z,1.00
2024-02-09T19:33:13.976Z,1.00
2024-02-09T19:35:41.505Z,1.00
2024-02-09T19:38:08.998Z,1.00
2024-02-09T19:40:36.942Z,1.00
2024-02-09T19:43:04.598Z,1.00
2024-02-09T19:45:32.617Z,1.00
2024-02-09T19:48:01.433Z,1.00
2024-02-09T19:50:28.927Z,1.00
2024-02-09T19:52:56.405Z,1.00
2024-02-09T19:55:24.047Z,1.00
2024-02-09T19:57:51.850Z,1.00
2024-02-09T20:00:19.844Z,1.00
2024-02-09T20:02:53.047Z,1.00
2024-02-09T20:05:28.522Z,1.00
2024-02-09T20:07:56.054Z,1.00
2024-02-09T20:10:23.932Z,1.00
2024-02-09T20:12:53.361Z,1.00
2024-02-09T20:15:21.046Z,1.00
2024-02-09T20:17:49.024Z,1.00
2024-02-09T20:20:20.784Z,1.00
2024-02-09T20:22:53.561Z,1.00
2024-02-09T20:25:22.839Z,1.00
2024-02-09T20:27:51.324Z,1.00
2024-02-09T20:30:18.809Z,1.00
2024-02-09T20:32:47.142Z,1.00
2024-02-09T20:35:16.281Z,1.00
2024-02-09T20:37:43.894Z,1.00
2024-02-09T20:40:12.004Z,1.00
2024-02-09T20:42:39.493Z,1.00
2024-02-09T20:45:10.611Z,1.00
2024-02-09T20:47:42.219Z,1.00
2024-02-09T20:50:16.140Z,1.00
2024-02-09T20:52:47.324Z,1.00
2024-02-09T20:55:23.732Z,1.00
2024-02-09T20:57:51.312Z,1.00
2024-02-09T21:00:22.432Z,1.00
2024-02-09T21:02:52.441Z,1.00
2024-02-09T21:05:21.004Z,1.00
2024-02-09T21:07:49.460Z,1.00
2024-02-09T21:10:17.842Z,1.00
2024-02-09T21:12:47.158Z,1.00
2024-02-09T21:15:15.672Z,1.00
2024-02-09T21:17:44.675Z,1.00
2024-02-09T21:20:13.788Z,1.00
2024-02-09T21:22:43.606Z,1.00
2024-02-09T21:25:11.890Z,1.00
2024-02-09T21:27:39.354Z,1.00
2024-02-09T21:30:10.301Z,1.00
2024-02-09T21:32:41.575Z,1.00
2024-02-09T21:35:10.371Z,1.00
2024-02-09T21:37:38.506Z,1.00
2024-02-09T21:40:10.401Z,1.00
2024-02-09T21:42:39.026Z,1.00
2024-02-09T21:45:07.273Z,1.00
2024-02-09T21:47:35.531Z,1.00
2024-02-09T21:50:04.162Z,1.00
2024-02-09T21:52:32.069Z,1.00
2024-02-09T21:55:00.086Z,1.00
2024-02-09T21:57:29.764Z,1.00
2024-02-09T21:59:57.835Z,1.00
2024-02-09T22:02:29.147Z,1.00
2024-02-09T22:04:58.519Z,1.00
2024-02-09T22:07:28.616Z,1.00
2024-02-09T22:09:56.083Z,1.00
2024-02-09T22:12:28.042Z,1.00
2024-02-09T22:14:57.100Z,1.00
2024-02-09T22:17:36.192Z,1.00
2024-02-09T22:20:07.368Z,1.00
2024-02-09T22:22:35.132Z,1.00
2024-02-09T22:25:03.223Z,1.00
2024-02-09T22:27:34.615Z,1.00
2024-02-09T22:30:02.800Z,1.00
2024-02-09T22:32:30.259Z,1.00
2024-02-09T22:34:58.019Z,1.00
2024-02-09T22:37:27.154Z,1.00
2024-02-09T22:39:54.606Z,1.00
2024-02-09T22:42:22.404Z,1.00
2024-02-09T22:44:50.032Z,1.00
2024-02-09T22:47:20.124Z,1.00
2024-02-09T22:49:48.735Z,1.00
2024-02-09T22:52:16.666Z,1.00
2024-02-09T22:54:44.342Z,1.00
2024-02-09T22:57:15.963Z,1.00
2024-02-09T22:59:43.582Z,1.00
2024-02-09T23:02:10.984Z,1.00
2024-02-09T23:04:39.863Z,1.00
2024-02-09T23:07:07.976Z,1.00
2024-02-09T23:09:38.744Z,1.00
2024-02-09T23:12:06.329Z,1.00
2024-02-09T23:14:34.286Z,1.00
2024-02-09T23:17:01.906Z,1.00
2024-02-09T23:19:29.481Z,1.00
2024-02-09T23:21:57.681Z,1.00
2024-02-09T23:24:26.760Z,1.00
2024-02-09T23:26:55.789Z,1.00
2024-02-09T23:29:27.136Z,1.00
2024-02-09T23:31:56.888Z,1.00
2024-02-09T23:34:24.964Z,1.00
2024-02-09T23:36:53.890Z,1.00
2024-02-09T23:39:23.112Z,1.00
2024-02-09T23:41:50.711Z,1.00
2024-02-09T23:44:23.784Z,1.00
2024-02-09T23:46:51.603Z,1.00
2024-02-09T23:49:19.721Z,1.00
2024-02-09T23:51:52.323Z,1.00
2024-02-09T23:54:19.839Z,1.00
2024-02-09T23:56:50.628Z,1.00
2024-02-09T23:59:17.931Z,1.00
